createdAt,value
2022-11-11T00:00:27.929Z,16.17
2022-11-11T00:01:48.569Z,15.25
2022-11-11T00:03:09.478Z,14.32
2022-11-11T00:04:30.121Z,16.63
2022-11-11T00:05:50.907Z,16.00
2022-11-11T00:07:11.995Z,13.32
2022-11-11T00:08:32.866Z,13.65
2022-11-11T00:09:53.492Z,15.25
2022-11-11T00:11:15.942Z,12.40
2022-11-11T00:12:36.905Z,17.58
2022-11-11T00:13:57.746Z,13.43
2022-11-11T00:15:18.588Z,10.75
2022-11-11T00:16:57.639Z,10.75
2022-11-11T00:18:51.142Z,11.55
2022-11-11T00:20:34.698Z,12.90
2022-11-11T00:22:14.344Z,14.63
2022-11-11T00:23:53.771Z,12.32
2022-11-11T00:25:17.418Z,13.88
2022-11-11T00:26:40.024Z,12.40
2022-11-11T00:28:01.608Z,13.68
2022-11-11T00:29:22.461Z,9.90
2022-11-11T00:30:43.235Z,10.73
2022-11-11T00:32:23.521Z,8.60
2022-11-11T00:33:44.624Z,18.25
2022-11-11T00:35:24.276Z,11.77
2022-11-11T00:36:45.059Z,11.35
2022-11-11T00:38:32.901Z,9.63
2022-11-11T00:39:53.786Z,12.55
2022-11-11T00:41:19.457Z,18.80
2022-11-11T00:42:40.373Z,15.20
2022-11-11T00:44:01.029Z,15.25
2022-11-11T00:45:21.925Z,16.88
2022-11-11T00:47:01.145Z,12.80
2022-11-11T00:48:40.346Z,16.00
2022-11-11T00:50:19.852Z,11.32
2022-11-11T00:51:41.217Z,12.52
2022-11-11T00:53:04.546Z,12.88
2022-11-11T00:54:25.037Z,14.85
2022-11-11T00:55:45.846Z,79.22
2022-11-11T00:57:06.487Z,57.83
2022-11-11T00:58:28.547Z,17.98
2022-11-11T00:59:49.925Z,17.98
2022-11-11T01:01:10.693Z,14.63
2022-11-11T01:02:31.534Z,18.98
2022-11-11T01:03:52.720Z,21.08
2022-11-11T01:05:13.860Z,26.77
2022-11-11T01:06:34.960Z,22.30
2022-11-11T01:07:56.192Z,26.38
2022-11-11T01:09:18.253Z,26.85
2022-11-11T01:10:38.913Z,25.77
2022-11-11T01:12:00.117Z,49.50
2022-11-11T01:13:23.875Z,41.00
2022-11-11T01:14:44.529Z,20.55
2022-11-11T01:16:08.187Z,54.08
2022-11-11T01:17:30.083Z,40.85
2022-11-11T01:18:51.991Z,74.10
2022-11-11T01:20:12.753Z,268.92
2022-11-11T01:21:34.110Z,275.77
2022-11-11T01:22:55.947Z,94.65
2022-11-11T01:24:17.348Z,20.75
2022-11-11T01:25:40.601Z,33.80
2022-11-11T01:27:01.640Z,49.33
2022-11-11T01:28:22.509Z,14.65
2022-11-11T01:29:43.453Z,12.85
2022-11-11T01:31:07.559Z,260.63
2022-11-11T01:32:28.548Z,81.75
2022-11-11T01:33:49.437Z,59.75
2022-11-11T01:35:10.198Z,19.17
2022-11-11T01:36:30.900Z,149.77
2022-11-11T01:37:51.856Z,194.98
2022-11-11T01:39:12.797Z,22.73
2022-11-11T01:40:44.267Z,9.50
2022-11-11T01:42:05.269Z,12.30
2022-11-11T01:43:26.167Z,36.30
2022-11-11T01:44:52.738Z,18.85
2022-11-11T01:46:44.213Z,132.95
2022-11-11T01:48:26.584Z,79.53
2022-11-11T01:49:56.182Z,17.63
2022-11-11T01:51:40.253Z,23.50
2022-11-11T01:53:01.151Z,14.50
2022-11-11T01:54:41.914Z,10.88
2022-11-11T01:56:04.088Z,11.05
2022-11-11T01:57:45.971Z,9.93
2022-11-11T01:59:11.683Z,12.10
2022-11-11T02:00:33.279Z,32.17
2022-11-11T02:01:54.003Z,40.90
2022-11-11T02:03:15.144Z,21.10
2022-11-11T02:04:55.536Z,14.90
2022-11-11T02:06:16.899Z,11.90
2022-11-11T02:07:39.374Z,12.95
2022-11-11T02:09:00.966Z,11.15
2022-11-11T02:10:25.501Z,15.15
2022-11-11T02:12:05.124Z,20.88
2022-11-11T02:13:44.821Z,9.55
2022-11-11T02:15:06.820Z,52.72
2022-11-11T02:16:28.058Z,115.40
2022-11-11T02:17:50.077Z,27.05
2022-11-11T02:19:11.264Z,29.88
2022-11-11T02:20:36.857Z,15.38
2022-11-11T02:22:01.839Z,12.38
2022-11-11T02:23:28.657Z,8.63
2022-11-11T02:24:52.373Z,9.98
2022-11-11T02:26:16.958Z,19.08
2022-11-11T02:27:42.956Z,103.07
2022-11-11T02:29:10.390Z,86.22
2022-11-11T02:30:31.312Z,19.30
2022-11-11T02:31:51.844Z,35.15
2022-11-11T02:33:12.716Z,15.85
2022-11-11T02:34:34.778Z,14.95
2022-11-11T02:35:58.761Z,11.32
2022-11-11T02:37:25.159Z,15.98
2022-11-11T02:38:46.095Z,35.10
2022-11-11T02:40:08.873Z,138.70
2022-11-11T02:41:47.794Z,115.28
2022-11-11T02:43:08.760Z,199.02
2022-11-11T02:44:29.505Z,713.50
2022-11-11T02:45:50.263Z,164.95
2022-11-11T02:47:11.218Z,18.17
2022-11-11T02:48:32.473Z,10.93
2022-11-11T02:49:53.580Z,10.13
2022-11-11T02:51:14.427Z,9.77
2022-11-11T02:52:35.305Z,12.45
2022-11-11T02:53:59.123Z,11.05
2022-11-11T02:55:19.971Z,8.05
2022-11-11T02:56:59.780Z,30.50
2022-11-11T02:58:20.872Z,23.58
2022-11-11T02:59:41.780Z,32.67
2022-11-11T03:01:02.487Z,22.48
2022-11-11T03:02:27.384Z,19.85
2022-11-11T03:03:48.239Z,27.67
2022-11-11T03:05:09.522Z,25.35
2022-11-11T03:06:30.891Z,12.32
2022-11-11T03:07:51.889Z,9.50
2022-11-11T03:09:13.138Z,9.30
2022-11-11T03:10:33.983Z,14.88
2022-11-11T03:11:55.231Z,13.25
2022-11-11T03:13:16.106Z,13.65
2022-11-11T03:14:37.199Z,14.27
2022-11-11T03:15:58.332Z,10.10
2022-11-11T03:17:37.545Z,15.38
2022-11-11T03:18:58.474Z,12.25
2022-11-11T03:20:38.374Z,13.20
2022-11-11T03:23:40.459Z,11.68
2022-11-11T03:25:19.289Z,11.18
2022-11-11T03:26:40.247Z,11.73
2022-11-11T03:28:01.137Z,15.20
2022-11-11T03:29:22.184Z,11.73
2022-11-11T03:30:45.135Z,9.25
2022-11-11T03:32:07.274Z,11.95
2022-11-11T03:33:27.932Z,9.82
2022-11-11T03:34:48.589Z,9.45
2022-11-11T03:36:09.492Z,9.38
2022-11-11T03:37:48.529Z,10.25
2022-11-11T03:39:09.948Z,8.88
2022-11-11T03:40:30.928Z,7.90
2022-11-11T03:41:51.681Z,9.63
2022-11-11T03:43:13.632Z,9.38
2022-11-11T03:44:34.465Z,10.88
2022-11-11T03:45:57.483Z,7.97
2022-11-11T03:47:18.504Z,12.63
2022-11-11T03:48:39.230Z,9.10
2022-11-11T03:49:59.741Z,9.35
2022-11-11T03:51:20.307Z,7.80
2022-11-11T03:52:43.239Z,10.10
2022-11-11T03:55:24.598Z,15.50
2022-11-11T03:56:45.228Z,8.57
2022-11-11T03:58:05.877Z,13.50
2022-11-11T03:59:26.736Z,12.15
2022-11-11T04:00:47.436Z,16.55
2022-11-11T04:02:30.891Z,19.35
2022-11-11T04:04:10.164Z,9.75
2022-11-11T04:05:49.429Z,36.40
2022-11-11T04:07:30.327Z,41.05
2022-11-11T04:09:09.594Z,38.55
2022-11-11T04:10:31.669Z,36.78
2022-11-11T04:11:53.403Z,14.13
2022-11-11T04:13:32.795Z,29.38
2022-11-11T04:15:11.926Z,25.30
2022-11-11T04:16:33.400Z,9.98
2022-11-11T04:17:53.909Z,10.57
2022-11-11T04:19:37.776Z,8.57
2022-11-11T04:21:16.520Z,9.45
2022-11-11T04:22:42.020Z,9.48
2022-11-11T04:24:03.259Z,11.45
2022-11-11T04:25:42.836Z,9.65
2022-11-11T04:27:07.097Z,12.88
2022-11-11T04:28:46.228Z,9.60
2022-11-11T04:30:07.843Z,9.20
2022-11-11T04:31:28.954Z,10.68
2022-11-11T04:32:49.427Z,7.95
2022-11-11T04:34:10.528Z,9.90
2022-11-11T04:35:31.058Z,8.85
2022-11-11T04:36:51.813Z,9.75
2022-11-11T04:38:38.726Z,10.82
2022-11-11T04:40:18.130Z,8.70
2022-11-11T04:42:01.759Z,9.15
2022-11-11T04:43:19.881Z,10.00
2022-11-11T04:44:58.888Z,21.85
2022-11-11T04:46:19.916Z,18.02
2022-11-11T04:47:56.993Z,17.27
2022-11-11T04:49:17.833Z,17.98
2022-11-11T04:50:40.895Z,12.40
2022-11-11T04:52:20.159Z,11.73
2022-11-11T04:53:41.165Z,12.90
2022-11-11T04:55:21.992Z,14.05
2022-11-11T04:56:50.155Z,19.77
2022-11-11T04:58:11.837Z,12.73
2022-11-11T04:59:32.731Z,23.00
2022-11-11T05:00:53.511Z,46.20
2022-11-11T05:02:32.981Z,13.60
2022-11-11T05:03:53.763Z,9.48
2022-11-11T05:05:14.738Z,18.80
2022-11-11T05:06:58.953Z,8.07
2022-11-11T05:08:38.915Z,18.85
2022-11-11T05:10:00.023Z,29.58
2022-11-11T05:11:36.482Z,26.42
2022-11-11T05:13:22.411Z,21.15
2022-11-11T05:15:02.929Z,14.07
2022-11-11T05:16:46.544Z,80.80
2022-11-11T05:18:26.879Z,337.00
2022-11-11T05:20:05.945Z,368.00
2022-11-11T05:21:29.646Z,39.97
2022-11-11T05:22:50.349Z,89.47
2022-11-11T05:24:29.755Z,87.65
2022-11-11T05:25:50.490Z,38.10
2022-11-11T05:27:11.277Z,54.58
2022-11-11T05:28:31.914Z,19.83
2022-11-11T05:29:52.972Z,10.95
2022-11-11T05:31:13.776Z,14.23
2022-11-11T05:32:34.770Z,16.27
2022-11-11T05:33:55.450Z,130.40
2022-11-11T05:35:17.665Z,27.08
2022-11-11T05:36:38.275Z,117.72
2022-11-11T05:38:20.745Z,174.57
2022-11-11T05:39:41.200Z,15.27
2022-11-11T05:41:02.038Z,158.88
2022-11-11T05:42:23.134Z,48.50
2022-11-11T05:43:43.998Z,37.33
2022-11-11T05:45:05.025Z,102.85
2022-11-11T05:46:25.761Z,77.63
2022-11-11T05:47:46.843Z,146.88
2022-11-11T05:49:17.144Z,16.35
2022-11-11T05:50:41.246Z,32.78
2022-11-11T05:52:02.343Z,46.45
2022-11-11T05:53:24.561Z,123.78
2022-11-11T05:54:46.273Z,158.52
2022-11-11T05:56:06.843Z,66.13
2022-11-11T05:57:27.747Z,269.30
2022-11-11T05:58:50.787Z,479.75
2022-11-11T06:00:12.171Z,199.27
2022-11-11T06:01:33.794Z,105.38
2022-11-11T06:02:54.807Z,66.85
2022-11-11T06:04:18.469Z,29.38
2022-11-11T06:05:39.563Z,73.20
2022-11-11T06:07:00.146Z,84.60
2022-11-11T06:08:20.832Z,81.20
2022-11-11T06:09:41.565Z,65.18
2022-11-11T06:11:02.180Z,57.42
2022-11-11T06:12:23.819Z,38.97
2022-11-11T06:13:44.518Z,37.83
2022-11-11T06:15:05.753Z,26.35
2022-11-11T06:16:26.759Z,22.33
2022-11-11T06:17:47.385Z,14.90
2022-11-11T06:19:08.200Z,13.95
2022-11-11T06:20:30.038Z,15.73
2022-11-11T06:22:00.786Z,25.42
2022-11-11T06:23:22.946Z,12.25
2022-11-11T06:25:04.225Z,11.73
2022-11-11T06:26:25.373Z,13.02
2022-11-11T06:27:46.155Z,12.85
2022-11-11T06:29:06.827Z,7.70
2022-11-11T06:30:47.953Z,10.05
2022-11-11T06:32:08.167Z,10.40
2022-11-11T06:33:28.981Z,13.45
2022-11-11T06:34:49.459Z,9.02
2022-11-11T06:36:13.484Z,10.55
2022-11-11T06:37:34.388Z,11.52
2022-11-11T06:38:55.161Z,8.82
2022-11-11T06:40:24.377Z,10.10
2022-11-11T06:41:45.249Z,16.17
2022-11-11T06:43:05.878Z,12.02
2022-11-11T06:44:26.435Z,16.00
2022-11-11T06:45:54.423Z,14.73
2022-11-11T06:47:15.985Z,14.65
2022-11-11T06:48:37.393Z,15.48
2022-11-11T06:49:58.440Z,14.50
2022-11-11T06:51:19.235Z,11.02
2022-11-11T06:52:39.861Z,13.45
2022-11-11T06:54:00.707Z,27.77
2022-11-11T06:55:22.000Z,26.60
2022-11-11T06:56:42.563Z,33.78
2022-11-11T06:58:16.747Z,67.55
2022-11-11T06:59:37.938Z,40.28
2022-11-11T07:00:58.623Z,46.67
2022-11-11T07:02:19.324Z,23.35
2022-11-11T07:03:39.876Z,30.38
2022-11-11T07:05:00.847Z,52.40
2022-11-11T07:06:21.369Z,38.17
2022-11-11T07:07:41.964Z,25.73
2022-11-11T07:09:02.677Z,25.60
2022-11-11T07:10:23.337Z,22.30
2022-11-11T07:11:44.160Z,20.85
2022-11-11T07:13:06.231Z,22.73
2022-11-11T07:14:27.275Z,24.67
2022-11-11T07:15:48.078Z,26.13
2022-11-11T07:17:09.028Z,35.17
2022-11-11T07:18:30.004Z,32.63
2022-11-11T07:19:50.697Z,16.10
2022-11-11T07:21:11.589Z,21.42
2022-11-11T07:22:38.125Z,22.30
2022-11-11T07:23:59.082Z,30.20
2022-11-11T07:25:19.759Z,14.57
2022-11-11T07:26:40.457Z,12.20
2022-11-11T07:28:01.244Z,12.80
2022-11-11T07:29:22.081Z,16.73
2022-11-11T07:30:42.991Z,15.02
2022-11-11T07:32:03.707Z,27.95
2022-11-11T07:33:24.912Z,17.63
2022-11-11T07:34:45.965Z,26.67
2022-11-11T07:38:28.203Z,13.93
2022-11-11T07:39:49.174Z,15.43
2022-11-11T07:41:10.023Z,18.30
2022-11-11T07:42:31.648Z,24.80
2022-11-11T07:43:52.893Z,18.20
2022-11-11T07:45:14.793Z,19.23
2022-11-11T07:46:35.413Z,13.15
2022-11-11T07:47:56.150Z,18.80
2022-11-11T07:49:16.814Z,14.10
2022-11-11T07:50:37.699Z,21.00
2022-11-11T07:51:58.270Z,13.95
2022-11-11T07:53:19.238Z,18.58
2022-11-11T07:54:40.123Z,22.27
2022-11-11T07:56:01.103Z,17.27
2022-11-11T07:57:22.086Z,19.48
2022-11-11T07:58:42.825Z,18.08
2022-11-11T08:00:04.876Z,13.98
2022-11-11T08:01:25.518Z,17.63
2022-11-11T08:02:49.561Z,18.98
2022-11-11T08:04:10.159Z,17.08
2022-11-11T08:05:30.823Z,14.93
2022-11-11T08:06:51.425Z,12.93
2022-11-11T08:08:12.174Z,15.10
2022-11-11T08:09:35.013Z,14.63
2022-11-11T08:10:56.039Z,14.27
2022-11-11T08:12:35.413Z,16.30
2022-11-11T08:13:56.128Z,14.43
2022-11-11T08:15:16.643Z,13.32
2022-11-11T08:16:37.392Z,16.30
2022-11-11T08:17:57.922Z,15.18
2022-11-11T08:19:18.476Z,17.77
2022-11-11T08:20:44.309Z,16.98
2022-11-11T08:22:06.322Z,13.57
2022-11-11T08:25:15.052Z,14.43
2022-11-11T08:26:35.782Z,13.52
2022-11-11T08:28:04.306Z,11.85
2022-11-11T08:29:24.777Z,10.68
2022-11-11T08:30:45.880Z,10.27
2022-11-11T08:32:06.651Z,9.88
2022-11-11T08:33:35.501Z,12.70
2022-11-11T08:34:56.384Z,12.55
2022-11-11T08:36:20.812Z,12.50
2022-11-11T08:37:49.015Z,11.68
2022-11-11T08:39:09.888Z,8.35
2022-11-11T08:40:30.600Z,10.00
2022-11-11T08:41:51.177Z,11.73
2022-11-11T08:43:12.224Z,10.10
2022-11-11T08:44:33.429Z,13.07
2022-11-11T08:45:54.451Z,13.15
2022-11-11T08:47:15.205Z,10.38
2022-11-11T08:48:35.695Z,13.85
2022-11-11T08:49:56.196Z,15.30
2022-11-11T08:51:16.795Z,11.40
2022-11-11T08:52:37.506Z,12.88
2022-11-11T08:53:58.127Z,14.32
2022-11-11T08:55:19.568Z,10.23
2022-11-11T08:56:40.360Z,12.93
2022-11-11T08:58:03.516Z,9.85
2022-11-11T08:59:24.085Z,10.57
2022-11-11T09:00:44.863Z,10.30
2022-11-11T09:02:05.562Z,13.02
2022-11-11T09:03:26.558Z,10.73
2022-11-11T09:04:50.515Z,10.98
2022-11-11T09:06:15.498Z,9.45
2022-11-11T09:07:36.228Z,10.77
2022-11-11T09:08:56.732Z,10.38
2022-11-11T09:10:17.620Z,11.52
2022-11-11T09:11:38.456Z,9.23
2022-11-11T09:12:59.878Z,10.85
2022-11-11T09:14:21.329Z,13.38
2022-11-11T09:15:42.254Z,16.05
2022-11-11T09:17:03.103Z,10.23
2022-11-11T09:18:23.757Z,9.45
2022-11-11T09:19:44.469Z,10.15
2022-11-11T09:21:06.079Z,9.18
2022-11-11T09:22:26.681Z,11.13
2022-11-11T09:23:47.163Z,11.57
2022-11-11T09:25:08.396Z,10.20
2022-11-11T09:26:29.106Z,9.13
2022-11-11T09:27:57.345Z,10.18
2022-11-11T09:29:19.077Z,11.32
2022-11-11T09:30:39.520Z,12.95
2022-11-11T09:32:00.449Z,7.97
2022-11-11T09:33:21.030Z,10.90
2022-11-11T09:34:42.247Z,9.07
2022-11-11T09:36:03.279Z,8.07
2022-11-11T09:37:24.156Z,9.43
2022-11-11T09:38:48.482Z,10.02
2022-11-11T09:40:19.333Z,10.90
2022-11-11T09:42:06.707Z,11.15
2022-11-11T09:43:52.317Z,11.13
2022-11-11T09:45:34.105Z,13.85
2022-11-11T09:47:05.754Z,14.52
2022-11-11T09:48:41.085Z,12.10
2022-11-11T09:50:09.764Z,17.25
2022-11-11T09:51:39.295Z,18.55
2022-11-11T09:53:29.182Z,11.25
2022-11-11T09:54:52.808Z,15.82
2022-11-11T09:56:31.485Z,15.57
2022-11-11T09:58:01.228Z,12.73
2022-11-11T09:59:28.457Z,11.68
2022-11-11T10:01:02.479Z,13.07
2022-11-11T10:02:26.099Z,12.02
2022-11-11T10:03:59.339Z,9.18
2022-11-11T10:05:37.366Z,11.13
2022-11-11T10:07:07.064Z,12.00
2022-11-11T10:08:35.468Z,11.02
2022-11-11T10:10:26.642Z,18.83
2022-11-11T10:12:09.628Z,16.40
2022-11-11T10:13:35.671Z,11.55
2022-11-11T10:14:57.139Z,10.07
2022-11-11T10:16:42.156Z,17.80
2022-11-11T10:18:18.582Z,13.55
2022-11-11T10:20:01.909Z,12.32
2022-11-11T10:22:10.535Z,54.60
2022-11-11T10:23:30.570Z,20.00
2022-11-11T10:25:09.246Z,19.92
2022-11-11T10:26:42.148Z,13.88
2022-11-11T10:28:04.052Z,13.40
2022-11-11T10:29:30.474Z,12.48
2022-11-11T10:30:55.080Z,11.55
2022-11-11T10:32:34.578Z,12.00
2022-11-11T10:34:05.097Z,13.75
2022-11-11T10:35:28.563Z,23.15
2022-11-11T10:36:56.289Z,23.48
2022-11-11T10:38:31.062Z,15.27
2022-11-11T10:40:10.129Z,17.98
2022-11-11T10:41:41.705Z,11.10
2022-11-11T10:43:02.192Z,27.85
2022-11-11T10:44:28.478Z,22.40
2022-11-11T10:45:55.252Z,7.75
2022-11-11T10:47:27.867Z,13.93
2022-11-11T10:48:51.867Z,11.65
2022-11-11T10:50:31.060Z,19.15
2022-11-11T10:51:58.506Z,22.40
2022-11-11T10:53:31.656Z,9.85
2022-11-11T10:55:23.921Z,14.40
2022-11-11T10:57:08.584Z,13.50
2022-11-11T10:58:32.193Z,13.68
2022-11-11T11:00:06.124Z,11.20
2022-11-11T11:01:34.694Z,9.40
2022-11-11T11:03:03.274Z,7.65
2022-11-11T11:04:30.966Z,7.03
2022-11-11T11:06:18.449Z,9.45
2022-11-11T11:07:46.894Z,10.85
2022-11-11T11:09:29.097Z,10.90
2022-11-11T11:10:58.063Z,7.60
2022-11-11T11:12:24.840Z,8.10
2022-11-11T11:13:51.409Z,8.93
2022-11-11T11:15:17.999Z,8.82
2022-11-11T11:16:45.049Z,9.70
2022-11-11T11:18:13.070Z,10.07
2022-11-11T11:19:34.551Z,7.93
2022-11-11T11:20:56.872Z,9.65
2022-11-11T11:22:17.942Z,9.60
2022-11-11T11:23:42.177Z,9.00
2022-11-11T11:25:12.378Z,10.52
2022-11-11T11:27:00.063Z,11.25
2022-11-11T11:28:21.059Z,10.63
2022-11-11T11:29:45.132Z,10.13
2022-11-11T11:31:08.101Z,14.10
2022-11-11T11:32:30.843Z,11.68
2022-11-11T11:35:32.646Z,46.08
2022-11-11T11:37:01.088Z,20.92
2022-11-11T11:38:41.542Z,16.48
2022-11-11T11:40:07.302Z,9.85
2022-11-11T11:41:40.695Z,15.70
2022-11-11T11:43:01.514Z,16.88
2022-11-11T11:44:38.824Z,16.73
2022-11-11T11:46:06.939Z,24.08
2022-11-11T11:47:41.534Z,21.50
2022-11-11T11:49:02.767Z,20.48
2022-11-11T11:50:35.448Z,34.13
2022-11-11T11:52:33.600Z,28.07
2022-11-11T11:54:22.991Z,33.03
2022-11-11T11:56:19.339Z,18.30
2022-11-11T11:57:52.385Z,21.20
2022-11-11T11:59:48.716Z,12.25
2022-11-11T12:01:41.509Z,20.20
2022-11-11T12:03:23.870Z,10.68
2022-11-11T12:05:34.983Z,17.63
2022-11-11T12:07:12.103Z,23.45
2022-11-11T12:09:14.591Z,27.83
2022-11-11T12:10:55.195Z,23.10
2022-11-11T12:12:47.834Z,11.38
2022-11-11T12:14:14.170Z,29.15
2022-11-11T12:15:40.072Z,41.25
2022-11-11T12:17:32.812Z,108.57
2022-11-11T12:19:01.744Z,10.90
2022-11-11T12:20:51.862Z,11.32
2022-11-11T12:22:44.611Z,12.40
2022-11-11T12:24:31.870Z,44.60
2022-11-11T12:26:11.547Z,12.65
2022-11-11T12:27:44.004Z,11.80
2022-11-11T12:29:07.336Z,10.15
2022-11-11T12:30:30.742Z,35.88
2022-11-11T12:32:14.113Z,11.23
2022-11-11T12:34:10.694Z,18.95
2022-11-11T12:35:31.183Z,11.30
2022-11-11T12:37:08.099Z,11.63
2022-11-11T12:39:16.641Z,30.05
2022-11-11T12:41:03.016Z,14.00
2022-11-11T12:42:38.757Z,36.13
2022-11-11T12:44:05.618Z,9.73
2022-11-11T12:45:39.549Z,14.75
2022-11-11T12:47:18.148Z,9.25
2022-11-11T12:48:46.445Z,15.15
2022-11-11T12:50:09.953Z,11.13
2022-11-11T12:51:42.388Z,14.07
2022-11-11T12:53:21.478Z,13.80
2022-11-11T12:55:13.239Z,11.65
2022-11-11T12:56:59.289Z,15.00
2022-11-11T12:58:30.470Z,9.82
2022-11-11T13:00:18.621Z,10.45
2022-11-11T13:01:57.549Z,12.95
2022-11-11T13:03:32.232Z,11.68
2022-11-11T13:05:13.082Z,11.70
2022-11-11T13:06:57.166Z,35.30
2022-11-11T13:08:56.435Z,14.00
2022-11-11T13:10:23.691Z,9.88
2022-11-11T13:12:02.899Z,12.60
2022-11-11T13:13:43.575Z,11.43
2022-11-11T13:15:14.319Z,11.85
2022-11-11T13:16:35.376Z,17.33
2022-11-11T13:18:00.546Z,10.00
2022-11-11T13:19:36.987Z,11.32
2022-11-11T13:21:01.343Z,10.10
2022-11-11T13:22:32.629Z,11.25
2022-11-11T13:23:53.770Z,8.57
2022-11-11T13:25:22.247Z,14.13
2022-11-11T13:26:52.027Z,11.20
2022-11-11T13:28:24.645Z,12.27
2022-11-11T13:30:04.675Z,19.88
2022-11-11T13:31:37.434Z,13.55
2022-11-11T13:33:19.394Z,16.73
2022-11-11T13:34:45.272Z,18.02
2022-11-11T13:36:09.778Z,17.15
2022-11-11T13:37:33.206Z,11.32
2022-11-11T13:38:57.263Z,20.27
2022-11-11T13:40:38.985Z,14.68
2022-11-11T13:42:01.251Z,13.25
2022-11-11T13:43:28.984Z,12.00
2022-11-11T13:44:56.816Z,12.45
2022-11-11T13:46:37.057Z,13.18
2022-11-11T13:47:58.433Z,12.05
2022-11-11T13:49:38.789Z,11.88
2022-11-11T13:51:20.104Z,12.75
2022-11-11T13:52:55.196Z,16.17
2022-11-11T13:54:32.970Z,12.48
2022-11-11T13:56:00.801Z,16.13
2022-11-11T13:57:24.135Z,14.48
2022-11-11T13:58:48.989Z,10.15
2022-11-11T14:00:18.683Z,15.15
2022-11-11T14:01:42.891Z,11.88
2022-11-11T14:03:19.885Z,12.32
2022-11-11T14:05:02.045Z,14.10
2022-11-11T14:06:22.619Z,14.88
2022-11-11T14:07:49.269Z,11.55
2022-11-11T14:09:09.901Z,27.88
2022-11-11T14:10:30.636Z,13.68
2022-11-11T14:11:51.605Z,11.98
2022-11-11T14:13:21.358Z,13.18
2022-11-11T14:14:50.463Z,18.20
2022-11-11T14:16:12.625Z,12.75
2022-11-11T14:17:35.452Z,10.83
2022-11-11T14:18:56.147Z,10.07
2022-11-11T14:20:37.672Z,12.88
2022-11-11T14:22:03.762Z,8.15
2022-11-11T14:23:41.057Z,10.57
2022-11-11T14:25:24.592Z,11.45
2022-11-11T14:27:00.880Z,17.70
2022-11-11T14:28:28.113Z,19.02
2022-11-11T14:29:53.852Z,12.05
2022-11-11T14:31:15.324Z,16.65
2022-11-11T14:32:35.943Z,13.77
2022-11-11T14:34:17.589Z,12.15
2022-11-11T14:35:50.374Z,16.95
2022-11-11T14:37:31.586Z,14.30
2022-11-11T14:39:12.939Z,13.02
2022-11-11T14:40:34.423Z,13.20
2022-11-11T14:41:55.195Z,13.10
2022-11-11T14:43:40.938Z,15.68
2022-11-11T14:45:03.177Z,12.80
2022-11-11T14:46:23.820Z,11.75
2022-11-11T14:47:44.728Z,11.45
2022-11-11T14:49:05.415Z,15.27
2022-11-11T14:50:31.849Z,13.85
2022-11-11T14:51:57.470Z,15.10
2022-11-11T14:53:21.452Z,14.48
2022-11-11T14:54:47.202Z,9.35
2022-11-11T14:56:16.328Z,10.50
2022-11-11T14:57:40.255Z,10.13
2022-11-11T14:59:07.165Z,11.00
2022-11-11T15:00:31.462Z,11.27
2022-11-11T15:01:55.172Z,17.27
2022-11-11T15:03:25.956Z,18.67
2022-11-11T15:04:47.724Z,14.18
2022-11-11T15:06:14.084Z,15.65
2022-11-11T15:07:58.972Z,16.27
2022-11-11T15:09:55.061Z,18.10
2022-11-11T15:11:24.848Z,16.70
2022-11-11T15:13:10.266Z,23.15
2022-11-11T15:14:48.829Z,17.02
2022-11-11T15:16:21.638Z,19.55
2022-11-11T15:18:23.227Z,20.08
2022-11-11T15:20:18.816Z,18.67
2022-11-11T15:22:12.826Z,20.67
2022-11-11T15:24:12.715Z,20.73
2022-11-11T15:25:46.828Z,22.70
2022-11-11T15:27:16.259Z,23.67
2022-11-11T15:29:07.648Z,22.10
2022-11-11T15:30:50.930Z,23.92
2022-11-11T15:32:21.592Z,24.55
2022-11-11T15:34:01.804Z,22.65
2022-11-11T15:35:35.001Z,23.77
2022-11-11T15:37:00.454Z,22.63
2022-11-11T15:38:21.308Z,25.48
2022-11-11T15:39:51.367Z,26.23
2022-11-11T15:41:23.967Z,30.50
2022-11-11T15:42:47.978Z,29.75
2022-11-11T15:44:18.561Z,95.22
2022-11-11T15:45:40.512Z,50.38
2022-11-11T15:47:01.897Z,81.07
2022-11-11T15:48:25.477Z,223.30
2022-11-11T15:49:48.021Z,244.82
2022-11-11T15:51:30.487Z,212.82
2022-11-11T15:53:02.930Z,115.72
2022-11-11T15:54:27.834Z,287.73
2022-11-11T15:55:53.779Z,354.70
2022-11-11T15:57:32.260Z,237.57
2022-11-11T15:58:53.176Z,337.48
2022-11-11T16:00:27.509Z,340.60
2022-11-11T16:01:48.479Z,234.93
2022-11-11T16:03:25.402Z,416.98
2022-11-11T16:04:55.354Z,326.77
2022-11-11T16:06:17.152Z,232.88
2022-11-11T16:07:43.203Z,280.00
2022-11-11T16:09:04.603Z,241.25
2022-11-11T16:10:31.733Z,196.68
2022-11-11T16:11:56.100Z,307.13
2022-11-11T16:13:16.691Z,359.40
2022-11-11T16:14:46.217Z,229.27
2022-11-11T16:16:13.602Z,340.63
2022-11-11T16:17:40.084Z,296.95
2022-11-11T16:19:25.273Z,350.90
2022-11-11T16:21:14.758Z,350.33
2022-11-11T16:22:37.456Z,351.08
2022-11-11T16:24:00.960Z,368.85
2022-11-11T16:25:23.107Z,177.95
2022-11-11T16:26:44.126Z,117.13
2022-11-11T16:28:05.105Z,243.10
2022-11-11T16:29:33.029Z,344.10
2022-11-11T16:30:53.925Z,406.02
2022-11-11T16:32:23.275Z,321.80
2022-11-11T16:33:43.798Z,224.70
2022-11-11T16:35:40.571Z,539.42
2022-11-11T16:37:10.995Z,403.00
2022-11-11T16:38:35.504Z,402.55
2022-11-11T16:39:56.326Z,205.27
2022-11-11T16:41:28.251Z,474.05
2022-11-11T16:42:49.286Z,330.50
2022-11-11T16:44:34.833Z,410.48
2022-11-11T16:46:01.674Z,379.55
2022-11-11T16:47:45.852Z,265.23
2022-11-11T16:50:33.118Z,428.60
2022-11-11T16:51:55.869Z,351.17
2022-11-11T16:53:33.428Z,490.60
2022-11-11T16:54:59.483Z,362.42
2022-11-11T16:56:30.773Z,403.10
2022-11-11T16:57:52.272Z,307.60
2022-11-11T16:59:37.735Z,349.35
2022-11-11T17:01:00.852Z,358.85
2022-11-11T17:02:25.004Z,450.60
2022-11-11T17:03:57.225Z,361.48
2022-11-11T17:05:18.148Z,214.75
2022-11-11T17:06:47.210Z,351.50
2022-11-11T17:08:36.786Z,269.70
2022-11-11T17:10:20.765Z,319.45
2022-11-11T17:11:44.515Z,580.45
2022-11-11T17:13:07.084Z,274.40
2022-11-11T17:14:31.008Z,162.73
2022-11-11T17:15:56.639Z,292.98
2022-11-11T17:17:17.516Z,198.85
2022-11-11T17:18:39.338Z,300.40
2022-11-11T17:20:04.348Z,333.42
2022-11-11T17:21:25.339Z,111.38
2022-11-11T17:22:54.111Z,270.50
2022-11-11T17:24:14.784Z,287.02
2022-11-11T17:25:35.813Z,98.78
2022-11-11T17:26:56.542Z,151.80
2022-11-11T17:28:17.554Z,150.00
2022-11-11T17:29:39.141Z,154.45
2022-11-11T17:31:07.956Z,175.73
2022-11-11T17:32:28.675Z,226.40
2022-11-11T17:33:49.906Z,103.78
2022-11-11T17:35:11.935Z,145.93
2022-11-11T17:36:33.084Z,220.57
2022-11-11T17:37:54.105Z,288.40
2022-11-11T17:39:15.086Z,175.95
2022-11-11T17:40:35.795Z,84.25
2022-11-11T17:41:56.357Z,170.90
2022-11-11T17:43:17.205Z,220.80
2022-11-11T17:44:38.600Z,52.50
2022-11-11T17:46:03.706Z,243.32
2022-11-11T17:47:24.621Z,269.40
2022-11-11T17:48:45.256Z,88.82
2022-11-11T17:50:06.258Z,139.75
2022-11-11T17:51:27.191Z,115.72
2022-11-11T17:52:48.840Z,256.77
2022-11-11T17:54:10.089Z,289.77
2022-11-11T17:55:32.155Z,349.13
2022-11-11T17:56:53.717Z,388.27
2022-11-11T17:58:14.513Z,224.90
2022-11-11T17:59:35.206Z,281.17
2022-11-11T18:01:03.859Z,190.15
2022-11-11T18:02:24.665Z,168.13
2022-11-11T18:03:45.285Z,291.05
2022-11-11T18:05:06.276Z,388.42
2022-11-11T18:06:27.302Z,387.92
2022-11-11T18:07:48.197Z,381.05
2022-11-11T18:09:08.787Z,374.67
2022-11-11T18:10:29.559Z,146.30
2022-11-11T18:11:50.645Z,389.52
2022-11-11T18:13:11.261Z,675.50
2022-11-11T18:14:31.962Z,485.92
2022-11-11T18:15:54.182Z,225.43
2022-11-11T18:17:17.347Z,95.10
2022-11-11T18:18:39.705Z,134.43
2022-11-11T18:20:00.266Z,98.47
2022-11-11T18:21:21.418Z,117.55
2022-11-11T18:22:42.161Z,170.60
2022-11-11T18:24:06.743Z,201.10
2022-11-11T18:25:27.303Z,207.07
2022-11-11T18:26:48.392Z,154.85
2022-11-11T18:28:09.207Z,182.68
2022-11-11T18:29:31.042Z,35.60
2022-11-11T18:30:51.797Z,167.25
2022-11-11T18:32:12.459Z,137.73
2022-11-11T18:33:34.509Z,170.65
2022-11-11T18:34:55.410Z,170.45
2022-11-11T18:36:18.982Z,159.55
2022-11-11T18:37:43.906Z,79.32
2022-11-11T18:39:07.484Z,159.20
2022-11-11T18:40:28.350Z,239.52
2022-11-11T18:41:48.926Z,275.70
2022-11-11T18:43:09.753Z,127.43
2022-11-11T18:44:30.440Z,185.02
2022-11-11T18:45:51.205Z,150.80
2022-11-11T18:47:11.927Z,240.02
2022-11-11T18:48:32.611Z,366.33
2022-11-11T18:49:54.275Z,541.78
2022-11-11T18:51:17.208Z,296.77